KOLE/OLE METAR and TAF weather

Enter ICAO airport designator
Station Type Date Time Source
KOLE METAR 2020/01/29 12:55 UTC NOAA

KOLE 291255Z AUTO 34004KT 10SM OVC011 M05/M06 A3006 RMK AO2


Station Type Date Time Source
KOLE Decoded METAR 2020/01/29 12:55 UTC NOAA

Olean Municipal, NY, United States (KOLE) 42-14N 078-22W
Jan 29, 2020 - 07:55 AM EST / 2020.01.29 1255 UTC
Wind: from the NNW (340 degrees) at 5 MPH (4 KT):0
Visibility: 10 mile(s):0
Sky conditions: overcast
Temperature: 23 F (-5 C)
Windchill: 15 F (-9 C):1
Dew Point: 21 F (-6 C)
Relative Humidity: 92%
Pressure (altimeter): 30.06 in. Hg (1017 hPa)
ob: KOLE 291255Z AUTO 34004KT 10SM OVC011 M05/M06 A3006 RMK AO2
cycle: 13

Station Type Date Time Source
KOLE TAF UTC NOAA

Error!

Example: see airport list